createdAt,value
2023-02-08T00:00:24.397Z,44.57
2023-02-08T00:02:52.103Z,46.77
2023-02-08T00:05:21.141Z,47.07
2023-02-08T00:07:48.804Z,43.57
2023-02-08T00:10:17.966Z,43.17
2023-02-08T00:12:45.584Z,40.77
2023-02-08T00:15:13.556Z,45.40
2023-02-08T00:17:41.145Z,51.17
2023-02-08T00:20:10.103Z,47.93
2023-02-08T00:22:38.811Z,54.03
2023-02-08T00:25:07.659Z,64.00
2023-02-08T00:27:36.665Z,69.77
2023-02-08T00:30:04.609Z,65.13
2023-02-08T00:32:32.205Z,64.03
2023-02-08T00:34:59.877Z,67.17
2023-02-08T00:37:27.598Z,64.00
2023-02-08T00:39:55.258Z,61.87
2023-02-08T00:42:25.288Z,62.50
2023-02-08T00:44:55.389Z,59.43
2023-02-08T00:47:23.161Z,52.30
2023-02-08T00:49:50.868Z,59.93
2023-02-08T00:52:19.523Z,60.47
2023-02-08T00:54:47.248Z,66.33
2023-02-08T00:57:15.215Z,64.60
2023-02-08T00:59:42.892Z,67.17
2023-02-08T01:02:12.119Z,73.43
2023-02-08T01:04:39.785Z,66.50
2023-02-08T01:07:07.611Z,62.40
2023-02-08T01:09:36.113Z,64.53
2023-02-08T01:12:04.858Z,59.20
2023-02-08T01:14:33.982Z,70.57
2023-02-08T01:17:01.881Z,59.30
2023-02-08T01:19:30.973Z,61.17
2023-02-08T01:21:58.566Z,58.00
2023-02-08T01:24:26.189Z,59.33
2023-02-08T01:26:53.857Z,59.33
2023-02-08T01:29:21.474Z,64.33
2023-02-08T01:31:49.163Z,70.97
2023-02-08T01:34:16.841Z,63.20
2023-02-08T01:36:45.770Z,66.30
2023-02-08T01:39:13.612Z,58.23
2023-02-08T01:41:44.258Z,60.50
2023-02-08T01:44:45.633Z,59.40
2023-02-08T01:47:13.584Z,59.83
2023-02-08T01:49:41.588Z,69.67
2023-02-08T01:52:14.313Z,69.77
2023-02-08T01:54:49.823Z,58.07
2023-02-08T01:57:20.717Z,57.43
2023-02-08T01:59:51.273Z,58.67
2023-02-08T02:02:22.463Z,58.33
2023-02-08T02:04:51.941Z,61.13
2023-02-08T02:07:23.595Z,64.80
2023-02-08T02:09:57.057Z,64.33
2023-02-08T02:12:28.161Z,66.00
2023-02-08T02:14:56.445Z,69.37
2023-02-08T02:17:24.113Z,66.07
2023-02-08T02:19:58.642Z,68.97
2023-02-08T02:22:50.572Z,74.00
2023-02-08T02:25:48.986Z,70.33
2023-02-08T02:28:34.881Z,73.67
2023-02-08T02:31:50.144Z,68.60
2023-02-08T02:34:27.179Z,72.17
2023-02-08T02:37:03.593Z,69.57
2023-02-08T02:39:39.968Z,66.60
2023-02-08T02:42:30.860Z,62.50
2023-02-08T02:45:07.165Z,57.73
2023-02-08T02:47:45.445Z,65.53
2023-02-08T02:50:20.966Z,63.20
2023-02-08T02:52:57.916Z,67.47
2023-02-08T02:55:29.210Z,67.70
2023-02-08T02:57:59.572Z,61.37
2023-02-08T03:00:30.977Z,61.53
2023-02-08T03:03:00.010Z,63.27
2023-02-08T03:05:30.008Z,65.37
2023-02-08T03:08:21.966Z,57.53
2023-02-08T03:11:15.457Z,62.47
2023-02-08T03:13:59.187Z,56.77
2023-02-08T03:16:39.715Z,65.87
2023-02-08T03:19:16.412Z,67.57
2023-02-08T03:21:51.995Z,68.17
2023-02-08T03:24:26.669Z,69.13
2023-02-08T03:26:58.913Z,62.77
2023-02-08T03:29:38.369Z,62.53
2023-02-08T03:32:11.046Z,63.83
2023-02-08T03:34:47.111Z,65.73
2023-02-08T03:37:19.519Z,58.93
2023-02-08T03:39:49.849Z,62.13
2023-02-08T03:42:23.094Z,64.57
2023-02-08T03:44:57.114Z,57.70
2023-02-08T03:47:27.838Z,57.13
2023-02-08T03:50:02.888Z,66.93
2023-02-08T03:52:32.906Z,61.50
2023-02-08T03:55:05.355Z,66.77
2023-02-08T03:57:37.473Z,62.87
2023-02-08T04:00:09.130Z,60.73
2023-02-08T04:02:44.014Z,51.13
2023-02-08T04:05:13.536Z,59.73
2023-02-08T04:07:41.181Z,55.10
2023-02-08T04:10:09.534Z,55.97
2023-02-08T04:12:37.475Z,57.07
2023-02-08T04:15:05.675Z,48.27
2023-02-08T04:17:33.308Z,49.20
2023-02-08T04:20:01.233Z,64.10
2023-02-08T04:22:30.190Z,52.93
2023-02-08T04:24:57.796Z,52.40
2023-02-08T04:27:25.408Z,55.57
2023-02-08T04:29:53.102Z,51.23
2023-02-08T04:32:20.733Z,60.37
2023-02-08T04:34:48.463Z,52.10
2023-02-08T04:37:16.083Z,54.57
2023-02-08T04:39:45.049Z,52.80
2023-02-08T04:42:12.640Z,47.03
2023-02-08T04:44:40.232Z,52.27
2023-02-08T04:47:08.028Z,52.40
2023-02-08T04:49:35.666Z,50.83
2023-02-08T04:52:03.286Z,56.93
2023-02-08T04:54:31.014Z,51.67
2023-02-08T04:56:59.933Z,51.30
2023-02-08T04:59:27.536Z,43.07
2023-02-08T05:01:55.243Z,49.67
2023-02-08T05:04:22.892Z,43.37
2023-02-08T05:06:50.480Z,50.60
2023-02-08T05:09:18.076Z,45.80
2023-02-08T05:11:45.642Z,44.67
2023-02-08T05:14:14.584Z,44.27
2023-02-08T05:16:42.235Z,48.07
2023-02-08T05:19:10.659Z,44.00
2023-02-08T05:21:38.308Z,47.53
2023-02-08T05:24:07.093Z,47.40
2023-02-08T05:26:34.684Z,49.93
2023-02-08T05:29:02.262Z,48.53
2023-02-08T05:31:31.648Z,51.77
2023-02-08T05:33:59.292Z,47.13
2023-02-08T05:36:26.944Z,49.43
2023-02-08T05:38:54.562Z,52.13
2023-02-08T05:41:22.407Z,50.93
2023-02-08T05:43:50.065Z,43.77
2023-02-08T05:46:17.727Z,41.90
2023-02-08T05:48:46.718Z,51.43
2023-02-08T05:51:14.391Z,45.93
2023-02-08T05:53:43.437Z,39.50
2023-02-08T05:56:11.020Z,44.63
2023-02-08T05:58:39.066Z,41.27
2023-02-08T06:01:10.391Z,37.27
2023-02-08T06:03:38.334Z,37.83
2023-02-08T06:06:11.074Z,39.77
2023-02-08T06:08:39.082Z,36.27
2023-02-08T06:11:07.199Z,39.60
2023-02-08T06:13:35.038Z,44.90
2023-02-08T06:16:02.876Z,47.17
2023-02-08T06:18:30.492Z,50.60
2023-02-08T06:20:58.363Z,48.00
2023-02-08T06:23:27.480Z,48.17
2023-02-08T06:25:55.096Z,49.13
2023-02-08T06:28:22.719Z,44.47
2023-02-08T06:30:50.394Z,46.20
2023-02-08T06:33:18.370Z,48.90
2023-02-08T06:35:46.665Z,48.33
2023-02-08T06:38:14.675Z,52.10
2023-02-08T06:40:43.676Z,50.70
2023-02-08T06:43:11.320Z,48.83
2023-02-08T06:45:38.943Z,50.27
2023-02-08T06:48:06.706Z,47.43
2023-02-08T06:50:34.284Z,47.70
2023-02-08T06:53:01.916Z,47.40
2023-02-08T06:55:29.498Z,40.43
2023-02-08T06:57:58.398Z,44.33
2023-02-08T07:00:26.043Z,44.60
2023-02-08T07:02:53.622Z,44.60
2023-02-08T07:05:21.224Z,45.33
2023-02-08T07:07:49.449Z,45.30
2023-02-08T07:10:17.246Z,46.87
2023-02-08T07:12:44.846Z,50.53
2023-02-08T07:15:14.193Z,49.90
2023-02-08T07:17:41.819Z,49.37
2023-02-08T07:20:11.437Z,48.77
2023-02-08T07:22:39.638Z,52.37
2023-02-08T07:25:08.710Z,52.17
2023-02-08T07:27:36.801Z,47.83
2023-02-08T07:30:05.017Z,50.73
2023-02-08T07:32:34.897Z,47.47
2023-02-08T07:35:02.630Z,46.23
2023-02-08T07:37:30.206Z,51.97
2023-02-08T07:39:57.867Z,47.53
2023-02-08T07:42:25.444Z,50.17
2023-02-08T07:45:04.553Z,50.23
2023-02-08T07:47:32.197Z,40.90
2023-02-08T07:50:01.178Z,43.57
2023-02-08T07:52:29.057Z,48.43
2023-02-08T07:54:57.004Z,46.30
2023-02-08T07:57:24.616Z,43.97
2023-02-08T07:59:54.155Z,52.57
2023-02-08T08:02:21.904Z,52.00
2023-02-08T08:04:49.580Z,53.63
2023-02-08T08:07:18.504Z,56.17
2023-02-08T08:09:46.101Z,55.47
2023-02-08T08:12:13.684Z,48.27
2023-02-08T08:14:41.258Z,48.53
2023-02-08T08:17:08.908Z,48.77
2023-02-08T08:19:36.499Z,47.30
2023-02-08T08:22:04.111Z,42.80
2023-02-08T08:24:35.577Z,56.80
2023-02-08T08:27:04.692Z,53.77
2023-02-08T08:29:32.906Z,57.80
2023-02-08T08:32:00.515Z,63.53
2023-02-08T08:34:30.582Z,55.53
2023-02-08T08:36:58.230Z,49.47
2023-02-08T08:39:27.282Z,50.57
2023-02-08T08:41:58.547Z,50.80
2023-02-08T08:44:26.609Z,48.93
2023-02-08T08:46:56.483Z,61.93
2023-02-08T08:49:24.083Z,66.73
2023-02-08T08:51:51.950Z,67.80
2023-02-08T08:54:20.547Z,74.23
2023-02-08T08:56:48.689Z,72.13
2023-02-08T08:59:17.687Z,70.07
2023-02-08T09:01:45.429Z,71.83
2023-02-08T09:04:13.198Z,70.43
2023-02-08T09:06:40.857Z,70.87
2023-02-08T09:09:08.831Z,74.30
2023-02-08T09:11:36.449Z,73.23
2023-02-08T09:14:04.807Z,75.00
2023-02-08T09:16:34.576Z,76.50
2023-02-08T09:19:02.980Z,74.03
2023-02-08T09:21:30.647Z,79.20
2023-02-08T09:23:58.598Z,72.83
2023-02-08T09:26:26.708Z,69.10
2023-02-08T09:28:54.551Z,71.87
2023-02-08T09:31:24.097Z,66.27
2023-02-08T09:33:54.961Z,77.63
2023-02-08T09:36:24.265Z,67.90
2023-02-08T09:38:57.463Z,74.30
2023-02-08T09:41:40.077Z,73.77
2023-02-08T09:44:21.145Z,69.27
2023-02-08T09:46:57.029Z,75.80
2023-02-08T09:49:31.920Z,72.07
2023-02-08T09:52:03.604Z,73.67
2023-02-08T09:54:34.690Z,73.17
2023-02-08T09:57:07.048Z,69.27
2023-02-08T09:59:36.392Z,82.07
2023-02-08T10:02:26.285Z,85.43
2023-02-08T10:05:01.376Z,79.10
2023-02-08T10:07:30.022Z,69.57
2023-02-08T10:10:01.161Z,71.83
2023-02-08T10:12:38.947Z,73.20
2023-02-08T10:15:29.648Z,75.27
2023-02-08T10:18:12.165Z,75.07
2023-02-08T10:20:51.500Z,72.23
2023-02-08T10:23:33.860Z,73.97
2023-02-08T10:26:13.439Z,73.83
2023-02-08T10:29:06.017Z,75.97
2023-02-08T10:31:49.334Z,69.53
2023-02-08T10:34:25.682Z,65.07
2023-02-08T10:36:55.186Z,65.03
2023-02-08T10:39:29.169Z,71.93
2023-02-08T10:41:57.277Z,73.83
2023-02-08T10:44:35.166Z,71.13
2023-02-08T10:47:13.782Z,75.33
2023-02-08T10:49:50.147Z,74.37
2023-02-08T10:52:19.665Z,69.23
2023-02-08T10:54:47.354Z,70.97
2023-02-08T10:57:18.764Z,69.00
2023-02-08T10:59:50.226Z,72.57
2023-02-08T11:02:26.666Z,71.87
2023-02-08T11:05:07.953Z,70.97
2023-02-08T11:07:37.382Z,67.97
2023-02-08T11:10:26.130Z,65.37
2023-02-08T11:12:56.587Z,66.57
2023-02-08T11:15:26.980Z,66.63
2023-02-08T11:17:58.496Z,70.17
2023-02-08T11:20:33.024Z,66.77
2023-02-08T11:23:02.116Z,66.13
2023-02-08T11:25:36.398Z,63.17
2023-02-08T11:28:05.438Z,71.90
2023-02-08T11:30:33.853Z,71.10
2023-02-08T11:33:20.437Z,66.37
2023-02-08T11:36:01.494Z,70.53
2023-02-08T11:38:32.064Z,66.77
2023-02-08T11:41:03.223Z,69.30
2023-02-08T11:43:33.217Z,61.53
2023-02-08T11:46:03.051Z,63.47
2023-02-08T11:48:40.426Z,63.30
2023-02-08T11:51:08.746Z,67.90
2023-02-08T11:53:41.340Z,64.20
2023-02-08T11:56:19.575Z,68.67
2023-02-08T11:59:03.349Z,70.10
2023-02-08T12:01:33.280Z,68.30
2023-02-08T12:04:03.324Z,63.97
2023-02-08T12:07:00.962Z,57.27
2023-02-08T12:09:56.391Z,65.43
2023-02-08T12:12:31.354Z,64.50
2023-02-08T12:15:08.383Z,63.83
2023-02-08T12:17:49.570Z,64.20
2023-02-08T12:20:42.128Z,63.00
2023-02-08T12:23:29.187Z,56.87
2023-02-08T12:26:07.931Z,55.00
2023-02-08T12:28:47.182Z,60.97
2023-02-08T12:31:24.302Z,57.43
2023-02-08T12:34:03.649Z,56.00
2023-02-08T12:37:13.418Z,56.00
2023-02-08T12:40:04.894Z,54.80
2023-02-08T12:42:49.147Z,49.00
2023-02-08T12:45:41.990Z,51.93
2023-02-08T12:48:22.424Z,52.73
2023-02-08T12:50:56.301Z,54.20
2023-02-08T12:53:31.767Z,55.33
2023-02-08T12:56:03.228Z,53.93
2023-02-08T12:58:36.696Z,58.97
2023-02-08T13:01:12.901Z,57.10
2023-02-08T13:03:46.723Z,58.27
2023-02-08T13:06:18.704Z,52.13
2023-02-08T13:08:51.495Z,55.93
2023-02-08T13:11:25.051Z,56.13
2023-02-08T13:13:59.755Z,57.63
2023-02-08T13:16:30.873Z,49.63
2023-02-08T13:19:24.530Z,51.77
2023-02-08T13:21:53.383Z,57.20
2023-02-08T13:24:29.608Z,56.10
2023-02-08T13:26:57.356Z,53.50
2023-02-08T13:29:28.390Z,52.00
2023-02-08T13:32:00.569Z,55.83
2023-02-08T13:34:37.341Z,54.33
2023-02-08T13:37:16.675Z,57.63
2023-02-08T13:39:58.858Z,50.53
2023-02-08T13:42:31.804Z,51.23
2023-02-08T13:45:03.019Z,55.80
2023-02-08T13:47:33.178Z,49.37
2023-02-08T13:50:02.130Z,51.53
2023-02-08T13:52:53.201Z,47.77
2023-02-08T13:55:45.982Z,46.57
2023-02-08T13:58:37.397Z,47.23
2023-02-08T14:01:21.334Z,48.33
2023-02-08T14:04:30.341Z,44.30
2023-02-08T14:07:18.593Z,42.27
2023-02-08T14:09:54.008Z,42.77
2023-02-08T14:12:28.202Z,45.80
2023-02-08T14:15:27.872Z,46.57
2023-02-08T14:17:59.750Z,45.03
2023-02-08T14:20:32.149Z,46.63
2023-02-08T14:23:02.716Z,46.53
2023-02-08T14:25:39.556Z,46.63
2023-02-08T14:28:08.561Z,45.07
2023-02-08T14:30:38.527Z,46.27
2023-02-08T14:33:22.395Z,43.00
2023-02-08T14:35:56.133Z,43.70
2023-02-08T14:38:50.415Z,47.30
2023-02-08T14:41:47.836Z,44.37
2023-02-08T14:44:48.907Z,52.40
2023-02-08T14:47:53.161Z,45.70
2023-02-08T14:50:26.913Z,46.73
2023-02-08T14:53:02.253Z,45.13
2023-02-08T14:55:35.207Z,42.23
2023-02-08T14:58:03.961Z,45.93
2023-02-08T15:00:36.516Z,43.00
2023-02-08T15:03:06.647Z,48.30
2023-02-08T15:05:41.327Z,43.10
2023-02-08T15:08:09.250Z,40.53
2023-02-08T15:10:44.872Z,42.60
2023-02-08T15:13:19.348Z,43.77
2023-02-08T15:15:51.636Z,44.73
2023-02-08T15:18:21.517Z,44.83
2023-02-08T15:21:03.840Z,42.70
2023-02-08T15:23:31.960Z,42.40
2023-02-08T15:26:02.842Z,40.43
2023-02-08T15:28:31.838Z,38.97
2023-02-08T15:31:01.706Z,35.37
2023-02-08T15:33:29.727Z,43.07
2023-02-08T15:36:01.141Z,37.77
2023-02-08T15:38:30.564Z,40.40
2023-02-08T15:41:05.620Z,38.00
2023-02-08T15:43:34.202Z,42.27
2023-02-08T15:46:04.048Z,39.20
2023-02-08T15:48:33.663Z,38.77
2023-02-08T15:51:03.966Z,39.47
2023-02-08T15:53:32.474Z,36.27
2023-02-08T15:56:04.337Z,34.30
2023-02-08T15:58:36.732Z,39.57
2023-02-08T16:01:07.700Z,37.37
2023-02-08T16:03:36.671Z,35.17
2023-02-08T16:06:07.997Z,38.50
2023-02-08T16:08:40.805Z,37.93
2023-02-08T16:11:12.679Z,35.47
2023-02-08T16:13:46.729Z,34.40
2023-02-08T16:16:20.939Z,36.53
2023-02-08T16:18:50.920Z,38.87
2023-02-08T16:21:27.108Z,35.30
2023-02-08T16:23:57.526Z,33.87
2023-02-08T16:26:28.674Z,34.97
2023-02-08T16:28:59.788Z,33.83
2023-02-08T16:31:30.548Z,32.30
2023-02-08T16:34:01.020Z,32.17
2023-02-08T16:36:37.191Z,33.47
2023-02-08T16:39:35.968Z,34.60
2023-02-08T16:42:15.473Z,32.00
2023-02-08T16:44:59.982Z,32.90
2023-02-08T16:47:36.006Z,35.17
2023-02-08T16:50:03.724Z,27.67
2023-02-08T16:52:32.850Z,23.93
2023-02-08T16:55:00.511Z,26.87
2023-02-08T16:57:40.422Z,26.37
2023-02-08T17:00:16.751Z,26.33
2023-02-08T17:02:44.366Z,24.20
2023-02-08T17:05:12.770Z,23.03
2023-02-08T17:07:41.751Z,23.93
2023-02-08T17:10:18.119Z,25.37
2023-02-08T17:12:45.791Z,28.00
2023-02-08T17:15:13.430Z,26.93
2023-02-08T17:17:41.103Z,25.00
2023-02-08T17:20:18.842Z,29.20
2023-02-08T17:22:47.927Z,24.63
2023-02-08T17:25:19.091Z,23.10
2023-02-08T17:27:48.585Z,21.97
2023-02-08T17:30:20.821Z,21.77
2023-02-08T17:32:49.735Z,22.67
2023-02-08T17:35:18.312Z,23.97
2023-02-08T17:37:49.483Z,22.53
2023-02-08T17:40:17.838Z,23.83
2023-02-08T17:42:47.595Z,26.30
2023-02-08T17:45:15.392Z,28.07
2023-02-08T17:47:42.990Z,28.20
2023-02-08T17:50:11.567Z,26.20
2023-02-08T17:52:39.905Z,27.40
2023-02-08T17:55:12.445Z,24.87
2023-02-08T17:57:41.823Z,24.50
2023-02-08T18:00:12.394Z,22.50
2023-02-08T18:02:43.910Z,23.23
2023-02-08T18:05:11.549Z,22.07
2023-02-08T18:07:39.830Z,25.40
2023-02-08T18:10:10.621Z,26.97
2023-02-08T18:12:39.054Z,29.10
2023-02-08T18:15:08.138Z,33.30
2023-02-08T18:17:36.255Z,30.90
2023-02-08T18:20:03.947Z,30.50
2023-02-08T18:22:31.583Z,27.57
2023-02-08T18:24:59.455Z,28.93
2023-02-08T18:27:28.449Z,36.83
2023-02-08T18:29:56.400Z,36.87
2023-02-08T18:32:24.103Z,35.07
2023-02-08T18:34:51.705Z,31.03
2023-02-08T18:37:19.300Z,31.27
2023-02-08T18:39:47.128Z,28.97
2023-02-08T18:42:14.758Z,29.70
2023-02-08T18:44:43.714Z,26.40
2023-02-08T18:47:11.837Z,26.33
2023-02-08T18:49:41.277Z,25.43
2023-02-08T18:52:09.901Z,25.00
2023-02-08T18:54:38.542Z,23.93
2023-02-08T18:57:09.472Z,27.47
2023-02-08T18:59:37.734Z,26.87
2023-02-08T19:02:07.858Z,28.93
2023-02-08T19:04:37.714Z,42.87
2023-02-08T19:07:05.358Z,43.33
2023-02-08T19:09:36.073Z,46.97
2023-02-08T19:12:04.215Z,49.43
2023-02-08T19:14:32.332Z,46.47
2023-02-08T19:17:00.430Z,44.17
2023-02-08T19:19:29.406Z,44.20
2023-02-08T19:21:57.101Z,42.03
2023-02-08T19:24:24.848Z,40.10
2023-02-08T19:26:52.462Z,42.43
2023-02-08T19:29:22.217Z,40.90
2023-02-08T19:31:50.840Z,44.47
2023-02-08T19:34:19.449Z,41.67
2023-02-08T19:36:51.613Z,47.17
2023-02-08T19:39:21.951Z,43.90
2023-02-08T19:41:50.260Z,51.73
2023-02-08T19:44:19.516Z,49.47
2023-02-08T19:46:49.633Z,45.47
2023-02-08T19:49:17.404Z,47.17
2023-02-08T19:51:45.444Z,49.27
2023-02-08T19:54:16.938Z,44.00
2023-02-08T19:56:44.852Z,43.37
2023-02-08T19:59:18.229Z,46.00
2023-02-08T20:01:46.617Z,46.20
2023-02-08T20:04:14.611Z,49.83
2023-02-08T20:06:44.954Z,50.47
2023-02-08T20:09:16.479Z,44.87
2023-02-08T20:11:56.513Z,44.23
2023-02-08T20:14:25.600Z,45.00
2023-02-08T20:16:53.629Z,45.33
2023-02-08T20:19:21.382Z,47.20
2023-02-08T20:21:49.545Z,42.67
2023-02-08T20:24:18.665Z,44.53
2023-02-08T20:26:48.300Z,44.00
2023-02-08T20:29:16.992Z,42.97
2023-02-08T20:31:47.516Z,41.30
2023-02-08T20:34:16.862Z,41.37
2023-02-08T20:36:57.507Z,41.73
2023-02-08T20:39:34.514Z,38.80
2023-02-08T20:42:02.215Z,42.10
2023-02-08T20:44:31.481Z,45.53
2023-02-08T20:46:59.339Z,44.90
2023-02-08T20:49:26.990Z,40.43
2023-02-08T20:51:55.226Z,42.10
2023-02-08T20:54:24.890Z,41.07
2023-02-08T20:56:54.846Z,39.97
2023-02-08T20:59:23.539Z,42.93
2023-02-08T21:01:51.681Z,44.97
2023-02-08T21:04:23.163Z,41.50
2023-02-08T21:06:52.231Z,41.37
2023-02-08T21:09:20.888Z,44.33
2023-02-08T21:11:48.836Z,42.23
2023-02-08T21:14:20.800Z,41.67
2023-02-08T21:16:51.148Z,39.40
2023-02-08T21:19:20.600Z,44.07
2023-02-08T21:21:51.129Z,38.00
2023-02-08T21:24:18.787Z,43.37
2023-02-08T21:26:46.435Z,42.17
2023-02-08T21:29:14.097Z,39.17
2023-02-08T21:31:43.207Z,41.27
2023-02-08T21:34:12.842Z,40.43
2023-02-08T21:36:40.736Z,39.93
2023-02-08T21:39:08.426Z,41.47
2023-02-08T21:41:36.086Z,41.07
2023-02-08T21:44:08.019Z,42.90
2023-02-08T21:46:35.935Z,39.00
2023-02-08T21:49:22.522Z,42.27
2023-02-08T21:52:07.884Z,41.67
2023-02-08T21:54:45.810Z,35.10
2023-02-08T21:57:17.783Z,38.23
2023-02-08T21:59:46.011Z,38.70
2023-02-08T22:02:16.646Z,39.13
2023-02-08T22:04:46.776Z,37.77
2023-02-08T22:07:14.821Z,37.40
2023-02-08T22:09:42.539Z,37.67
2023-02-08T22:12:14.699Z,39.83
2023-02-08T22:14:42.565Z,44.27
2023-02-08T22:17:10.757Z,38.63
2023-02-08T22:19:38.755Z,42.17
2023-02-08T22:22:08.294Z,37.50
2023-02-08T22:24:36.920Z,43.80
2023-02-08T22:27:04.771Z,40.47
2023-02-08T22:29:33.044Z,42.33
2023-02-08T22:32:01.120Z,41.23
2023-02-08T22:34:29.261Z,48.23
2023-02-08T22:36:56.904Z,44.33
2023-02-08T22:39:25.970Z,42.80
2023-02-08T22:41:53.625Z,43.23
2023-02-08T22:44:21.294Z,42.80
2023-02-08T22:46:48.954Z,40.73
2023-02-08T22:49:16.758Z,42.03
2023-02-08T22:51:44.419Z,42.33
2023-02-08T22:54:12.022Z,48.20
2023-02-08T22:56:41.079Z,46.50
2023-02-08T22:59:08.696Z,47.97
2023-02-08T23:01:36.403Z,43.20
2023-02-08T23:04:04.785Z,45.47
2023-02-08T23:06:32.436Z,43.80
2023-02-08T23:09:00.084Z,42.10
2023-02-08T23:11:27.741Z,40.53
2023-02-08T23:13:56.806Z,42.47
2023-02-08T23:16:24.654Z,43.53
2023-02-08T23:18:52.318Z,40.93
2023-02-08T23:21:21.815Z,45.53
2023-02-08T23:23:49.704Z,40.10
2023-02-08T23:26:19.802Z,44.17
2023-02-08T23:28:49.838Z,40.23
2023-02-08T23:31:19.880Z,41.40
2023-02-08T23:33:47.657Z,43.53
2023-02-08T23:36:17.807Z,40.87
2023-02-08T23:38:45.747Z,47.07
2023-02-08T23:41:16.021Z,43.73
2023-02-08T23:43:44.085Z,44.70
2023-02-08T23:46:15.647Z,43.70
2023-02-08T23:48:44.758Z,41.10
2023-02-08T23:51:12.634Z,43.23
2023-02-08T23:53:40.518Z,45.60
2023-02-08T23:56:14.484Z,44.93
2023-02-08T23:58:42.499Z,44.90
